sensor_id;sensor_type;location;lat;lon;timestamp;P1;durP1;ratioP1;P2;durP2;ratioP2
5937;SDS011;2994;51.220;4.412;2023-04-09T00:00:34;16.00;;;14.40;;
5937;SDS011;2994;51.220;4.412;2023-04-09T00:03:00;20.87;;;16.33;;
5937;SDS011;2994;51.220;4.412;2023-04-09T00:05:25;20.20;;;16.80;;
5937;SDS011;2994;51.220;4.412;2023-04-09T00:07:51;16.70;;;15.00;;
5937;SDS011;2994;51.220;4.412;2023-04-09T00:10:16;17.40;;;15.00;;
5937;SDS011;2994;51.220;4.412;2023-04-09T00:12:42;19.80;;;15.03;;
5937;SDS011;2994;51.220;4.412;2023-04-09T00:15:07;18.00;;;14.90;;
5937;SDS011;2994;51.220;4.412;2023-04-09T00:17:33;19.20;;;16.67;;
5937;SDS011;2994;51.220;4.412;2023-04-09T00:19:58;20.57;;;16.93;;
5937;SDS011;2994;51.220;4.412;2023-04-09T00:22:24;20.30;;;16.47;;
5937;SDS011;2994;51.220;4.412;2023-04-09T00:24:49;20.80;;;17.80;;
5937;SDS011;2994;51.220;4.412;2023-04-09T00:27:15;22.83;;;16.67;;
5937;SDS011;2994;51.220;4.412;2023-04-09T00:29:40;21.47;;;17.60;;
5937;SDS011;2994;51.220;4.412;2023-04-09T00:32:06;23.60;;;19.47;;
5937;SDS011;2994;51.220;4.412;2023-04-09T00:34:31;24.13;;;18.27;;
5937;SDS011;2994;51.220;4.412;2023-04-09T00:36:57;26.67;;;20.30;;
5937;SDS011;2994;51.220;4.412;2023-04-09T00:39:23;23.53;;;19.17;;
5937;SDS011;2994;51.220;4.412;2023-04-09T00:41:48;27.93;;;22.13;;
5937;SDS011;2994;51.220;4.412;2023-04-09T00:44:14;25.27;;;18.80;;
5937;SDS011;2994;51.220;4.412;2023-04-09T00:46:39;27.67;;;20.77;;
5937;SDS011;2994;51.220;4.412;2023-04-09T00:49:05;26.33;;;20.33;;
5937;SDS011;2994;51.220;4.412;2023-04-09T00:51:30;28.80;;;21.33;;
5937;SDS011;2994;51.220;4.412;2023-04-09T00:53:57;24.33;;;19.93;;
5937;SDS011;2994;51.220;4.412;2023-04-09T00:56:22;24.23;;;21.30;;
5937;SDS011;2994;51.220;4.412;2023-04-09T00:58:49;27.60;;;22.50;;
5937;SDS011;2994;51.220;4.412;2023-04-09T01:01:14;29.13;;;20.53;;
5937;SDS011;2994;51.220;4.412;2023-04-09T01:03:40;28.83;;;21.00;;
5937;SDS011;2994;51.220;4.412;2023-04-09T01:08:58;28.30;;;20.20;;
5937;SDS011;2994;51.220;4.412;2023-04-09T01:14:26;26.63;;;20.80;;
5937;SDS011;2994;51.220;4.412;2023-04-09T01:17:14;26.63;;;21.30;;
5937;SDS011;2994;51.220;4.412;2023-04-09T01:28:11;28.57;;;21.13;;
5937;SDS011;2994;51.220;4.412;2023-04-09T01:30:39;27.23;;;21.20;;
5937;SDS011;2994;51.220;4.412;2023-04-09T01:33:07;26.40;;;20.30;;
5937;SDS011;2994;51.220;4.412;2023-04-09T01:35:34;27.50;;;20.80;;
5937;SDS011;2994;51.220;4.412;2023-04-09T01:37:59;29.53;;;21.80;;
5937;SDS011;2994;51.220;4.412;2023-04-09T01:40:27;27.03;;;21.37;;
5937;SDS011;2994;51.220;4.412;2023-04-09T01:42:53;30.00;;;21.80;;
5937;SDS011;2994;51.220;4.412;2023-04-09T01:45:20;27.70;;;22.50;;
5937;SDS011;2994;51.220;4.412;2023-04-09T01:47:47;33.93;;;23.70;;
5937;SDS011;2994;51.220;4.412;2023-04-09T01:50:12;27.20;;;20.03;;
5937;SDS011;2994;51.220;4.412;2023-04-09T01:52:38;31.40;;;23.50;;
5937;SDS011;2994;51.220;4.412;2023-04-09T01:55:04;29.20;;;23.40;;
5937;SDS011;2994;51.220;4.412;2023-04-09T01:57:30;27.53;;;20.40;;
5937;SDS011;2994;51.220;4.412;2023-04-09T01:59:55;28.67;;;23.00;;
5937;SDS011;2994;51.220;4.412;2023-04-09T02:02:23;33.30;;;24.93;;
5937;SDS011;2994;51.220;4.412;2023-04-09T02:05:04;32.87;;;23.60;;
5937;SDS011;2994;51.220;4.412;2023-04-09T02:07:37;28.57;;;24.23;;
5937;SDS011;2994;51.220;4.412;2023-04-09T02:10:07;30.37;;;23.70;;
5937;SDS011;2994;51.220;4.412;2023-04-09T02:12:35;30.13;;;23.10;;
5937;SDS011;2994;51.220;4.412;2023-04-09T02:15:02;31.47;;;24.20;;
5937;SDS011;2994;51.220;4.412;2023-04-09T02:17:30;36.83;;;25.10;;
5937;SDS011;2994;51.220;4.412;2023-04-09T02:19:55;31.93;;;23.40;;
5937;SDS011;2994;51.220;4.412;2023-04-09T02:22:21;37.60;;;26.27;;
5937;SDS011;2994;51.220;4.412;2023-04-09T02:24:46;36.93;;;27.37;;
5937;SDS011;2994;51.220;4.412;2023-04-09T02:27:12;34.37;;;26.47;;
5937;SDS011;2994;51.220;4.412;2023-04-09T02:29:40;32.70;;;25.70;;
5937;SDS011;2994;51.220;4.412;2023-04-09T02:32:06;35.73;;;25.57;;
5937;SDS011;2994;51.220;4.412;2023-04-09T02:34:32;32.20;;;24.43;;
5937;SDS011;2994;51.220;4.412;2023-04-09T02:36:57;33.93;;;26.13;;
5937;SDS011;2994;51.220;4.412;2023-04-09T02:39:23;35.63;;;26.03;;
5937;SDS011;2994;51.220;4.412;2023-04-09T02:41:48;34.40;;;26.07;;
5937;SDS011;2994;51.220;4.412;2023-04-09T02:44:14;34.90;;;25.07;;
5937;SDS011;2994;51.220;4.412;2023-04-09T02:46:39;36.27;;;26.07;;
5937;SDS011;2994;51.220;4.412;2023-04-09T02:49:05;36.07;;;25.83;;
5937;SDS011;2994;51.220;4.412;2023-04-09T02:51:33;39.17;;;27.27;;
5937;SDS011;2994;51.220;4.412;2023-04-09T02:54:01;36.30;;;27.93;;
5937;SDS011;2994;51.220;4.412;2023-04-09T02:56:27;38.43;;;25.73;;
5937;SDS011;2994;51.220;4.412;2023-04-09T02:58:53;36.00;;;27.30;;
5937;SDS011;2994;51.220;4.412;2023-04-09T03:01:19;39.87;;;27.60;;
5937;SDS011;2994;51.220;4.412;2023-04-09T03:03:45;40.97;;;28.53;;
5937;SDS011;2994;51.220;4.412;2023-04-09T03:06:11;36.47;;;27.60;;
5937;SDS011;2994;51.220;4.412;2023-04-09T03:08:37;39.30;;;28.37;;
5937;SDS011;2994;51.220;4.412;2023-04-09T03:11:02;36.27;;;27.63;;
5937;SDS011;2994;51.220;4.412;2023-04-09T03:13:27;40.63;;;29.90;;
5937;SDS011;2994;51.220;4.412;2023-04-09T03:15:53;43.47;;;28.80;;
5937;SDS011;2994;51.220;4.412;2023-04-09T03:18:19;40.30;;;26.70;;
5937;SDS011;2994;51.220;4.412;2023-04-09T03:20:44;40.60;;;27.63;;
5937;SDS011;2994;51.220;4.412;2023-04-09T03:23:10;43.87;;;27.37;;
5937;SDS011;2994;51.220;4.412;2023-04-09T03:25:35;38.67;;;27.70;;
5937;SDS011;2994;51.220;4.412;2023-04-09T03:28:01;41.57;;;29.57;;
5937;SDS011;2994;51.220;4.412;2023-04-09T03:30:27;43.97;;;29.87;;
5937;SDS011;2994;51.220;4.412;2023-04-09T03:32:53;38.47;;;27.97;;
5937;SDS011;2994;51.220;4.412;2023-04-09T03:35:19;37.97;;;27.17;;
5937;SDS011;2994;51.220;4.412;2023-04-09T03:37:44;42.43;;;28.03;;
5937;SDS011;2994;51.220;4.412;2023-04-09T03:40:10;40.43;;;28.10;;
5937;SDS011;2994;51.220;4.412;2023-04-09T03:42:36;35.10;;;26.77;;
5937;SDS011;2994;51.220;4.412;2023-04-09T03:45:02;39.97;;;27.40;;
5937;SDS011;2994;51.220;4.412;2023-04-09T03:47:28;35.67;;;24.87;;
5937;SDS011;2994;51.220;4.412;2023-04-09T03:49:54;37.00;;;24.77;;
5937;SDS011;2994;51.220;4.412;2023-04-09T03:52:20;40.97;;;27.93;;
5937;SDS011;2994;51.220;4.412;2023-04-09T03:54:45;33.90;;;24.93;;
5937;SDS011;2994;51.220;4.412;2023-04-09T03:57:11;35.77;;;24.97;;
5937;SDS011;2994;51.220;4.412;2023-04-09T03:59:36;37.87;;;26.60;;
5937;SDS011;2994;51.220;4.412;2023-04-09T04:02:02;36.03;;;25.97;;
5937;SDS011;2994;51.220;4.412;2023-04-09T04:04:27;38.00;;;26.20;;
5937;SDS011;2994;51.220;4.412;2023-04-09T04:06:52;37.40;;;25.80;;
5937;SDS011;2994;51.220;4.412;2023-04-09T04:09:18;39.67;;;25.50;;
5937;SDS011;2994;51.220;4.412;2023-04-09T04:11:43;38.53;;;27.00;;
5937;SDS011;2994;51.220;4.412;2023-04-09T04:14:09;33.50;;;24.33;;
5937;SDS011;2994;51.220;4.412;2023-04-09T04:16:34;37.30;;;26.07;;
5937;SDS011;2994;51.220;4.412;2023-04-09T04:19:00;41.60;;;28.07;;
5937;SDS011;2994;51.220;4.412;2023-04-09T04:21:25;38.57;;;22.83;;
5937;SDS011;2994;51.220;4.412;2023-04-09T04:23:51;40.20;;;26.63;;
5937;SDS011;2994;51.220;4.412;2023-04-09T04:26:16;39.53;;;27.20;;
5937;SDS011;2994;51.220;4.412;2023-04-09T04:28:42;44.83;;;29.30;;
5937;SDS011;2994;51.220;4.412;2023-04-09T04:31:08;38.67;;;27.87;;
5937;SDS011;2994;51.220;4.412;2023-04-09T04:33:35;41.00;;;28.53;;
5937;SDS011;2994;51.220;4.412;2023-04-09T04:36:05;40.50;;;26.63;;
5937;SDS011;2994;51.220;4.412;2023-04-09T04:38:34;39.30;;;27.10;;
5937;SDS011;2994;51.220;4.412;2023-04-09T04:41:01;40.33;;;28.60;;
5937;SDS011;2994;51.220;4.412;2023-04-09T04:43:27;37.13;;;28.30;;
5937;SDS011;2994;51.220;4.412;2023-04-09T04:45:52;37.60;;;27.27;;
5937;SDS011;2994;51.220;4.412;2023-04-09T04:48:18;41.90;;;28.30;;
5937;SDS011;2994;51.220;4.412;2023-04-09T04:50:43;39.40;;;26.67;;
5937;SDS011;2994;51.220;4.412;2023-04-09T04:53:09;43.13;;;29.30;;
5937;SDS011;2994;51.220;4.412;2023-04-09T04:55:35;37.37;;;26.00;;
5937;SDS011;2994;51.220;4.412;2023-04-09T04:58:01;36.23;;;25.87;;
5937;SDS011;2994;51.220;4.412;2023-04-09T05:00:26;39.30;;;27.50;;
5937;SDS011;2994;51.220;4.412;2023-04-09T05:02:52;36.10;;;26.07;;
5937;SDS011;2994;51.220;4.412;2023-04-09T05:05:17;36.77;;;25.13;;
5937;SDS011;2994;51.220;4.412;2023-04-09T05:07:43;36.93;;;27.20;;
5937;SDS011;2994;51.220;4.412;2023-04-09T05:10:08;44.10;;;29.57;;
5937;SDS011;2994;51.220;4.412;2023-04-09T05:12:34;36.87;;;25.67;;
5937;SDS011;2994;51.220;4.412;2023-04-09T05:14:59;41.47;;;28.87;;
5937;SDS011;2994;51.220;4.412;2023-04-09T05:17:25;40.80;;;27.40;;
5937;SDS011;2994;51.220;4.412;2023-04-09T05:19:51;37.40;;;28.03;;
5937;SDS011;2994;51.220;4.412;2023-04-09T05:22:20;38.73;;;27.63;;
5937;SDS011;2994;51.220;4.412;2023-04-09T05:24:45;40.23;;;28.23;;
5937;SDS011;2994;51.220;4.412;2023-04-09T05:27:11;40.43;;;27.30;;
5937;SDS011;2994;51.220;4.412;2023-04-09T05:29:36;40.77;;;28.27;;
5937;SDS011;2994;51.220;4.412;2023-04-09T05:32:02;39.77;;;26.03;;
5937;SDS011;2994;51.220;4.412;2023-04-09T05:34:27;44.67;;;30.50;;
5937;SDS011;2994;51.220;4.412;2023-04-09T05:36:53;39.40;;;27.57;;
5937;SDS011;2994;51.220;4.412;2023-04-09T05:39:19;43.93;;;29.43;;
5937;SDS011;2994;51.220;4.412;2023-04-09T05:41:45;42.53;;;28.47;;
5937;SDS011;2994;51.220;4.412;2023-04-09T05:44:11;43.77;;;29.60;;
5937;SDS011;2994;51.220;4.412;2023-04-09T05:46:36;40.77;;;29.60;;
5937;SDS011;2994;51.220;4.412;2023-04-09T05:49:02;43.93;;;28.70;;
5937;SDS011;2994;51.220;4.412;2023-04-09T05:51:28;46.43;;;29.10;;
5937;SDS011;2994;51.220;4.412;2023-04-09T05:53:53;40.70;;;27.47;;
5937;SDS011;2994;51.220;4.412;2023-04-09T05:56:19;43.63;;;27.40;;
5937;SDS011;2994;51.220;4.412;2023-04-09T05:58:46;42.20;;;26.27;;
5937;SDS011;2994;51.220;4.412;2023-04-09T06:01:12;38.73;;;28.43;;
5937;SDS011;2994;51.220;4.412;2023-04-09T06:03:38;40.27;;;27.60;;
5937;SDS011;2994;51.220;4.412;2023-04-09T06:06:03;45.70;;;29.70;;
5937;SDS011;2994;51.220;4.412;2023-04-09T06:08:29;43.10;;;30.10;;
5937;SDS011;2994;51.220;4.412;2023-04-09T06:10:55;42.20;;;27.87;;
5937;SDS011;2994;51.220;4.412;2023-04-09T06:13:20;44.30;;;30.37;;
5937;SDS011;2994;51.220;4.412;2023-04-09T06:15:46;42.90;;;29.50;;
5937;SDS011;2994;51.220;4.412;2023-04-09T06:18:12;44.13;;;31.40;;
5937;SDS011;2994;51.220;4.412;2023-04-09T06:20:37;40.80;;;28.77;;
5937;SDS011;2994;51.220;4.412;2023-04-09T06:23:03;42.50;;;28.00;;
5937;SDS011;2994;51.220;4.412;2023-04-09T06:25:29;39.70;;;27.07;;
5937;SDS011;2994;51.220;4.412;2023-04-09T06:27:55;44.33;;;28.73;;
5937;SDS011;2994;51.220;4.412;2023-04-09T06:30:21;44.37;;;29.77;;
5937;SDS011;2994;51.220;4.412;2023-04-09T06:32:47;46.07;;;30.30;;
5937;SDS011;2994;51.220;4.412;2023-04-09T06:35:13;37.67;;;27.97;;
5937;SDS011;2994;51.220;4.412;2023-04-09T06:37:39;39.93;;;28.17;;
5937;SDS011;2994;51.220;4.412;2023-04-09T06:40:05;39.20;;;29.20;;
5937;SDS011;2994;51.220;4.412;2023-04-09T06:42:31;40.97;;;29.07;;
5937;SDS011;2994;51.220;4.412;2023-04-09T06:44:57;35.90;;;28.53;;
5937;SDS011;2994;51.220;4.412;2023-04-09T06:47:22;42.90;;;28.97;;
5937;SDS011;2994;51.220;4.412;2023-04-09T06:49:48;37.93;;;27.23;;
5937;SDS011;2994;51.220;4.412;2023-04-09T06:52:13;39.77;;;28.23;;
5937;SDS011;2994;51.220;4.412;2023-04-09T06:54:38;36.80;;;28.70;;
5937;SDS011;2994;51.220;4.412;2023-04-09T06:57:05;41.40;;;29.63;;
5937;SDS011;2994;51.220;4.412;2023-04-09T06:59:31;40.47;;;27.37;;
5937;SDS011;2994;51.220;4.412;2023-04-09T07:01:57;36.07;;;28.47;;
5937;SDS011;2994;51.220;4.412;2023-04-09T07:04:23;43.13;;;29.23;;
5937;SDS011;2994;51.220;4.412;2023-04-09T07:06:49;42.57;;;31.90;;
5937;SDS011;2994;51.220;4.412;2023-04-09T07:09:16;37.03;;;28.17;;
5937;SDS011;2994;51.220;4.412;2023-04-09T07:11:42;41.13;;;28.20;;
5937;SDS011;2994;51.220;4.412;2023-04-09T07:14:08;42.37;;;29.43;;
5937;SDS011;2994;51.220;4.412;2023-04-09T07:16:33;40.93;;;28.67;;
5937;SDS011;2994;51.220;4.412;2023-04-09T07:18:59;38.70;;;28.60;;
5937;SDS011;2994;51.220;4.412;2023-04-09T07:21:24;37.23;;;28.30;;
5937;SDS011;2994;51.220;4.412;2023-04-09T07:23:52;34.13;;;27.57;;
5937;SDS011;2994;51.220;4.412;2023-04-09T07:26:18;40.87;;;30.67;;
5937;SDS011;2994;51.220;4.412;2023-04-09T07:28:43;39.60;;;30.10;;
5937;SDS011;2994;51.220;4.412;2023-04-09T07:31:09;38.43;;;29.43;;
5937;SDS011;2994;51.220;4.412;2023-04-09T07:33:35;42.60;;;28.60;;
5937;SDS011;2994;51.220;4.412;2023-04-09T07:36:01;43.93;;;29.20;;
5937;SDS011;2994;51.220;4.412;2023-04-09T07:38:28;41.27;;;29.63;;
5937;SDS011;2994;51.220;4.412;2023-04-09T07:40:55;40.63;;;29.60;;
5937;SDS011;2994;51.220;4.412;2023-04-09T07:43:21;38.70;;;29.87;;
5937;SDS011;2994;51.220;4.412;2023-04-09T07:45:49;39.50;;;31.37;;
5937;SDS011;2994;51.220;4.412;2023-04-09T07:48:15;39.37;;;29.77;;
5937;SDS011;2994;51.220;4.412;2023-04-09T07:50:41;38.77;;;30.20;;
5937;SDS011;2994;51.220;4.412;2023-04-09T07:53:09;39.37;;;28.17;;
5937;SDS011;2994;51.220;4.412;2023-04-09T07:55:35;40.97;;;29.90;;
5937;SDS011;2994;51.220;4.412;2023-04-09T07:58:01;35.60;;;27.93;;
5937;SDS011;2994;51.220;4.412;2023-04-09T08:00:28;39.13;;;28.83;;
5937;SDS011;2994;51.220;4.412;2023-04-09T08:02:53;41.10;;;30.97;;
5937;SDS011;2994;51.220;4.412;2023-04-09T08:05:19;42.50;;;31.80;;
5937;SDS011;2994;51.220;4.412;2023-04-09T08:07:45;39.90;;;28.63;;
5937;SDS011;2994;51.220;4.412;2023-04-09T08:10:10;37.63;;;28.90;;
5937;SDS011;2994;51.220;4.412;2023-04-09T08:12:41;35.80;;;28.10;;
5937;SDS011;2994;51.220;4.412;2023-04-09T08:15:10;36.80;;;25.97;;
5937;SDS011;2994;51.220;4.412;2023-04-09T08:17:39;40.50;;;29.07;;
5937;SDS011;2994;51.220;4.412;2023-04-09T09:30:21;37.90;;;28.57;;
5937;SDS011;2994;51.220;4.412;2023-04-09T09:32:53;37.60;;;28.00;;
5937;SDS011;2994;51.220;4.412;2023-04-09T09:35:51;39.10;;;26.77;;
5937;SDS011;2994;51.220;4.412;2023-04-09T09:38:18;35.30;;;25.93;;
5937;SDS011;2994;51.220;4.412;2023-04-09T09:40:45;35.73;;;24.90;;
5937;SDS011;2994;51.220;4.412;2023-04-09T09:43:11;34.07;;;23.90;;
5937;SDS011;2994;51.220;4.412;2023-04-09T09:45:39;31.10;;;25.00;;
5937;SDS011;2994;51.220;4.412;2023-04-09T09:48:05;33.17;;;22.30;;
5937;SDS011;2994;51.220;4.412;2023-04-09T09:50:31;28.67;;;21.83;;
5937;SDS011;2994;51.220;4.412;2023-04-09T09:53:03;29.57;;;23.67;;
5937;SDS011;2994;51.220;4.412;2023-04-09T09:55:32;28.47;;;23.47;;
5937;SDS011;2994;51.220;4.412;2023-04-09T09:58:01;28.90;;;23.33;;
5937;SDS011;2994;51.220;4.412;2023-04-09T10:00:35;32.70;;;24.50;;
5937;SDS011;2994;51.220;4.412;2023-04-09T10:03:14;33.53;;;24.93;;
5937;SDS011;2994;51.220;4.412;2023-04-09T10:05:48;33.73;;;25.17;;
5937;SDS011;2994;51.220;4.412;2023-04-09T10:08:15;30.90;;;22.87;;
5937;SDS011;2994;51.220;4.412;2023-04-09T10:10:41;32.17;;;22.90;;
5937;SDS011;2994;51.220;4.412;2023-04-09T10:13:08;34.30;;;25.67;;
5937;SDS011;2994;51.220;4.412;2023-04-09T10:15:49;31.63;;;23.53;;
5937;SDS011;2994;51.220;4.412;2023-04-09T10:18:16;32.60;;;23.53;;
5937;SDS011;2994;51.220;4.412;2023-04-09T10:20:47;36.23;;;22.93;;
5937;SDS011;2994;51.220;4.412;2023-04-09T10:26:05;30.33;;;21.87;;
5937;SDS011;2994;51.220;4.412;2023-04-09T10:28:31;36.17;;;23.63;;
5937;SDS011;2994;51.220;4.412;2023-04-09T10:30:57;28.30;;;22.47;;
5937;SDS011;2994;51.220;4.412;2023-04-09T10:33:23;30.77;;;22.70;;
5937;SDS011;2994;51.220;4.412;2023-04-09T10:35:51;22.17;;;18.30;;
5937;SDS011;2994;51.220;4.412;2023-04-09T10:38:40;29.80;;;19.07;;
5937;SDS011;2994;51.220;4.412;2023-04-09T10:41:06;26.80;;;19.80;;
5937;SDS011;2994;51.220;4.412;2023-04-09T10:43:31;26.17;;;20.43;;
5937;SDS011;2994;51.220;4.412;2023-04-09T10:46:00;27.33;;;19.07;;
5937;SDS011;2994;51.220;4.412;2023-04-09T10:48:31;22.80;;;19.07;;
5937;SDS011;2994;51.220;4.412;2023-04-09T10:50:57;25.50;;;19.27;;
5937;SDS011;2994;51.220;4.412;2023-04-09T10:53:23;21.87;;;17.77;;
5937;SDS011;2994;51.220;4.412;2023-04-09T10:55:51;24.53;;;19.17;;
5937;SDS011;2994;51.220;4.412;2023-04-09T10:58:17;28.50;;;21.23;;
5937;SDS011;2994;51.220;4.412;2023-04-09T11:00:43;24.37;;;18.80;;
5937;SDS011;2994;51.220;4.412;2023-04-09T11:06:04;27.33;;;19.87;;
5937;SDS011;2994;51.220;4.412;2023-04-09T11:08:34;25.03;;;18.73;;
5937;SDS011;2994;51.220;4.412;2023-04-09T11:11:01;24.17;;;19.57;;
5937;SDS011;2994;51.220;4.412;2023-04-09T11:13:28;21.13;;;16.70;;
5937;SDS011;2994;51.220;4.412;2023-04-09T11:15:55;24.20;;;17.90;;
5937;SDS011;2994;51.220;4.412;2023-04-09T11:18:24;22.37;;;17.47;;
5937;SDS011;2994;51.220;4.412;2023-04-09T11:20:54;22.33;;;19.33;;
5937;SDS011;2994;51.220;4.412;2023-04-09T11:23:30;22.17;;;17.03;;
5937;SDS011;2994;51.220;4.412;2023-04-09T11:25:56;21.20;;;15.73;;
5937;SDS011;2994;51.220;4.412;2023-04-09T11:28:22;20.17;;;14.63;;
5937;SDS011;2994;51.220;4.412;2023-04-09T11:30:52;21.30;;;14.97;;
5937;SDS011;2994;51.220;4.412;2023-04-09T11:33:17;21.33;;;16.53;;
5937;SDS011;2994;51.220;4.412;2023-04-09T11:35:43;22.20;;;16.10;;
5937;SDS011;2994;51.220;4.412;2023-04-09T11:38:09;17.20;;;15.27;;
5937;SDS011;2994;51.220;4.412;2023-04-09T11:40:36;21.60;;;17.70;;
5937;SDS011;2994;51.220;4.412;2023-04-09T11:43:11;16.97;;;15.10;;
5937;SDS011;2994;51.220;4.412;2023-04-09T11:45:38;22.83;;;17.60;;
5937;SDS011;2994;51.220;4.412;2023-04-09T11:48:06;21.40;;;17.30;;
5937;SDS011;2994;51.220;4.412;2023-04-09T11:50:31;22.27;;;16.80;;
5937;SDS011;2994;51.220;4.412;2023-04-09T11:52:57;17.87;;;14.30;;
5937;SDS011;2994;51.220;4.412;2023-04-09T11:55:23;24.87;;;17.20;;
5937;SDS011;2994;51.220;4.412;2023-04-09T11:57:51;22.83;;;16.17;;
5937;SDS011;2994;51.220;4.412;2023-04-09T12:00:20;20.17;;;16.30;;
5937;SDS011;2994;51.220;4.412;2023-04-09T12:02:49;21.87;;;17.20;;
5937;SDS011;2994;51.220;4.412;2023-04-09T12:05:23;19.37;;;16.13;;
5937;SDS011;2994;51.220;4.412;2023-04-09T12:07:50;17.83;;;14.37;;
5937;SDS011;2994;51.220;4.412;2023-04-09T12:10:16;15.90;;;13.40;;
5937;SDS011;2994;51.220;4.412;2023-04-09T12:12:42;18.63;;;12.90;;
5937;SDS011;2994;51.220;4.412;2023-04-09T12:15:17;17.80;;;14.13;;
5937;SDS011;2994;51.220;4.412;2023-04-09T12:17:45;18.13;;;14.97;;
5937;SDS011;2994;51.220;4.412;2023-04-09T12:20:25;21.40;;;16.83;;
5937;SDS011;2994;51.220;4.412;2023-04-09T12:23:16;19.03;;;14.93;;
5937;SDS011;2994;51.220;4.412;2023-04-09T12:25:42;20.10;;;14.67;;
5937;SDS011;2994;51.220;4.412;2023-04-09T12:28:09;21.40;;;16.13;;
5937;SDS011;2994;51.220;4.412;2023-04-09T12:30:36;20.83;;;14.83;;
5937;SDS011;2994;51.220;4.412;2023-04-09T12:33:02;18.90;;;15.37;;
5937;SDS011;2994;51.220;4.412;2023-04-09T12:35:28;21.10;;;16.00;;
5937;SDS011;2994;51.220;4.412;2023-04-09T12:37:54;21.40;;;16.30;;
5937;SDS011;2994;51.220;4.412;2023-04-09T12:40:19;19.97;;;15.13;;
5937;SDS011;2994;51.220;4.412;2023-04-09T12:42:45;18.00;;;15.90;;
5937;SDS011;2994;51.220;4.412;2023-04-09T12:45:13;16.70;;;13.63;;
5937;SDS011;2994;51.220;4.412;2023-04-09T12:47:39;17.00;;;13.53;;
5937;SDS011;2994;51.220;4.412;2023-04-09T12:50:05;18.53;;;13.50;;
5937;SDS011;2994;51.220;4.412;2023-04-09T12:52:32;15.67;;;13.10;;
5937;SDS011;2994;51.220;4.412;2023-04-09T12:54:58;18.53;;;12.80;;
5937;SDS011;2994;51.220;4.412;2023-04-09T12:57:24;16.67;;;13.90;;
5937;SDS011;2994;51.220;4.412;2023-04-09T12:59:50;18.80;;;15.10;;
5937;SDS011;2994;51.220;4.412;2023-04-09T13:02:15;16.73;;;12.73;;
5937;SDS011;2994;51.220;4.412;2023-04-09T13:04:41;15.07;;;12.00;;
5937;SDS011;2994;51.220;4.412;2023-04-09T13:07:06;13.87;;;11.37;;
5937;SDS011;2994;51.220;4.412;2023-04-09T13:09:32;16.00;;;11.87;;
5937;SDS011;2994;51.220;4.412;2023-04-09T13:11:59;14.50;;;12.10;;
5937;SDS011;2994;51.220;4.412;2023-04-09T13:14:25;17.60;;;13.77;;
5937;SDS011;2994;51.220;4.412;2023-04-09T13:16:50;17.33;;;14.23;;
5937;SDS011;2994;51.220;4.412;2023-04-09T13:19:16;16.73;;;13.60;;
5937;SDS011;2994;51.220;4.412;2023-04-09T13:21:42;16.30;;;13.30;;
5937;SDS011;2994;51.220;4.412;2023-04-09T13:24:08;16.77;;;13.83;;
5937;SDS011;2994;51.220;4.412;2023-04-09T13:26:33;17.80;;;13.93;;
5937;SDS011;2994;51.220;4.412;2023-04-09T13:28:59;19.43;;;15.70;;
5937;SDS011;2994;51.220;4.412;2023-04-09T13:31:26;17.20;;;14.37;;
5937;SDS011;2994;51.220;4.412;2023-04-09T13:33:51;18.27;;;13.53;;
5937;SDS011;2994;51.220;4.412;2023-04-09T13:36:17;20.43;;;14.57;;
5937;SDS011;2994;51.220;4.412;2023-04-09T13:38:42;18.17;;;13.50;;
5937;SDS011;2994;51.220;4.412;2023-04-09T13:41:08;14.70;;;12.17;;
5937;SDS011;2994;51.220;4.412;2023-04-09T13:43:33;16.80;;;12.67;;
5937;SDS011;2994;51.220;4.412;2023-04-09T13:45:58;15.60;;;13.47;;
5937;SDS011;2994;51.220;4.412;2023-04-09T13:48:24;12.37;;;11.00;;
5937;SDS011;2994;51.220;4.412;2023-04-09T13:50:50;17.97;;;13.63;;
5937;SDS011;2994;51.220;4.412;2023-04-09T13:53:15;16.77;;;13.83;;
5937;SDS011;2994;51.220;4.412;2023-04-09T13:55:41;13.10;;;11.50;;
5937;SDS011;2994;51.220;4.412;2023-04-09T13:58:07;15.23;;;12.60;;
5937;SDS011;2994;51.220;4.412;2023-04-09T14:00:33;15.27;;;13.23;;
5937;SDS011;2994;51.220;4.412;2023-04-09T14:03:00;16.33;;;12.47;;
5937;SDS011;2994;51.220;4.412;2023-04-09T14:05:27;15.97;;;13.03;;
5937;SDS011;2994;51.220;4.412;2023-04-09T14:07:52;15.87;;;13.17;;
5937;SDS011;2994;51.220;4.412;2023-04-09T14:10:18;15.70;;;12.70;;
5937;SDS011;2994;51.220;4.412;2023-04-09T14:12:43;14.87;;;12.73;;
5937;SDS011;2994;51.220;4.412;2023-04-09T14:15:09;17.27;;;12.87;;
5937;SDS011;2994;51.220;4.412;2023-04-09T14:17:35;15.33;;;13.60;;
5937;SDS011;2994;51.220;4.412;2023-04-09T14:20:00;13.43;;;11.73;;
5937;SDS011;2994;51.220;4.412;2023-04-09T14:22:28;14.50;;;11.80;;
5937;SDS011;2994;51.220;4.412;2023-04-09T14:24:53;12.50;;;11.23;;
5937;SDS011;2994;51.220;4.412;2023-04-09T14:27:19;15.00;;;11.17;;
5937;SDS011;2994;51.220;4.412;2023-04-09T14:29:45;12.70;;;11.10;;
5937;SDS011;2994;51.220;4.412;2023-04-09T14:32:10;14.40;;;11.90;;
5937;SDS011;2994;51.220;4.412;2023-04-09T14:34:36;13.37;;;11.50;;
5937;SDS011;2994;51.220;4.412;2023-04-09T14:37:01;13.83;;;11.10;;
5937;SDS011;2994;51.220;4.412;2023-04-09T14:39:27;12.93;;;10.10;;
5937;SDS011;2994;51.220;4.412;2023-04-09T14:41:52;12.67;;;11.37;;
5937;SDS011;2994;51.220;4.412;2023-04-09T14:44:19;11.70;;;10.10;;
5937;SDS011;2994;51.220;4.412;2023-04-09T14:46:45;13.60;;;11.00;;
5937;SDS011;2994;51.220;4.412;2023-04-09T14:49:13;15.20;;;11.40;;
5937;SDS011;2994;51.220;4.412;2023-04-09T14:51:39;12.43;;;11.17;;
5937;SDS011;2994;51.220;4.412;2023-04-09T14:54:05;11.30;;;10.20;;
5937;SDS011;2994;51.220;4.412;2023-04-09T14:56:30;12.07;;;10.37;;
5937;SDS011;2994;51.220;4.412;2023-04-09T14:58:56;14.90;;;11.30;;
5937;SDS011;2994;51.220;4.412;2023-04-09T15:01:24;12.90;;;10.80;;
5937;SDS011;2994;51.220;4.412;2023-04-09T15:03:50;12.63;;;11.13;;
5937;SDS011;2994;51.220;4.412;2023-04-09T15:06:16;12.53;;;11.27;;
5937;SDS011;2994;51.220;4.412;2023-04-09T15:08:41;13.43;;;10.70;;
5937;SDS011;2994;51.220;4.412;2023-04-09T15:11:13;13.00;;;9.90;;
5937;SDS011;2994;51.220;4.412;2023-04-09T15:13:42;13.03;;;10.00;;
5937;SDS011;2994;51.220;4.412;2023-04-09T15:16:08;10.93;;;9.37;;
5937;SDS011;2994;51.220;4.412;2023-04-09T15:18:33;14.83;;;11.27;;
5937;SDS011;2994;51.220;4.412;2023-04-09T15:21:01;13.13;;;10.70;;
5937;SDS011;2994;51.220;4.412;2023-04-09T15:23:27;13.30;;;12.00;;
5937;SDS011;2994;51.220;4.412;2023-04-09T15:25:52;13.10;;;11.40;;
5937;SDS011;2994;51.220;4.412;2023-04-09T15:28:17;13.33;;;10.53;;
5937;SDS011;2994;51.220;4.412;2023-04-09T15:30:43;14.70;;;12.10;;
5937;SDS011;2994;51.220;4.412;2023-04-09T15:33:08;26.60;;;20.07;;
5937;SDS011;2994;51.220;4.412;2023-04-09T15:35:34;14.17;;;12.77;;
5937;SDS011;2994;51.220;4.412;2023-04-09T15:38:00;13.20;;;11.57;;
5937;SDS011;2994;51.220;4.412;2023-04-09T15:40:25;12.97;;;10.60;;
5937;SDS011;2994;51.220;4.412;2023-04-09T15:42:52;12.90;;;11.30;;
5937;SDS011;2994;51.220;4.412;2023-04-09T15:45:18;12.23;;;10.93;;
5937;SDS011;2994;51.220;4.412;2023-04-09T15:47:44;12.53;;;9.50;;
5937;SDS011;2994;51.220;4.412;2023-04-09T15:50:10;11.93;;;10.63;;
5937;SDS011;2994;51.220;4.412;2023-04-09T15:52:36;13.27;;;11.70;;
5937;SDS011;2994;51.220;4.412;2023-04-09T15:55:01;12.30;;;9.73;;
5937;SDS011;2994;51.220;4.412;2023-04-09T15:57:27;10.10;;;8.30;;
5937;SDS011;2994;51.220;4.412;2023-04-09T15:59:52;11.20;;;10.10;;
5937;SDS011;2994;51.220;4.412;2023-04-09T16:02:18;10.97;;;9.90;;
5937;SDS011;2994;51.220;4.412;2023-04-09T16:04:43;10.30;;;9.20;;
5937;SDS011;2994;51.220;4.412;2023-04-09T16:07:09;10.30;;;8.87;;
5937;SDS011;2994;51.220;4.412;2023-04-09T16:09:35;12.63;;;10.77;;
5937;SDS011;2994;51.220;4.412;2023-04-09T16:12:00;10.30;;;9.23;;
5937;SDS011;2994;51.220;4.412;2023-04-09T16:14:26;10.20;;;9.17;;